Time;durP1;ratioP1;P1;durP2;ratioP2;P2;SDS_P1;SDS_P2;PMS_P1;PMS_P2;Temp;Humidity;BMP_temperature;BMP_pressure;BME280_temperature;BME280_humidity;BME280_pressure;Samples;Min_cycle;Max_cycle;Signal;HPM_P1;HPM_P2
2023/07/03 00:00:19;;;;;;;16.37;15.17;;;;;;;24.14;51.40;94712.41;6161520;28;109524;-62
2023/07/03 00:03:22;;;;;;;17.17;15.87;;;;;;;24.16;51.74;94719.00;6178628;28;108798;-62
2023/07/03 00:06:25;;;;;;;19.27;17.77;;;;;;;24.18;51.62;94716.00;6159870;28;111359;-63
2023/07/03 00:09:28;;;;;;;18.33;16.97;;;;;;;24.19;51.43;94713.03;6165435;28;109047;-62
2023/07/03 00:12:33;;;;;;;18.27;16.97;;;;;;;24.16;51.62;94719.00;6174128;28;110083;-60
2023/07/03 00:15:36;;;;;;;17.50;16.20;;;;;;;24.13;51.61;94716.19;6170305;28;109320;-61
2023/07/03 00:18:39;;;;;;;18.00;16.70;;;;;;;24.14;51.63;94726.56;6159946;28;110057;-62
2023/07/03 00:21:43;;;;;;;18.10;16.60;;;;;;;24.18;50.98;94721.34;6177448;28;109018;-60
2023/07/03 00:24:47;;;;;;;17.73;16.43;;;;;;;24.18;51.72;94716.00;6177004;28;109070;-62
2023/07/03 00:27:53;;;;;;;18.77;17.37;;;;;;;24.17;51.55;94720.56;6160893;28;109191;-62
2023/07/03 00:30:56;;;;;;;18.20;16.80;;;;;;;24.17;51.71;94715.22;6159246;28;109191;-62
2023/07/03 00:34:00;;;;;;;18.00;16.70;;;;;;;24.17;51.35;94709.88;6181620;28;109076;-62
2023/07/03 00:37:03;;;;;;;17.97;16.70;;;;;;;24.14;51.54;94715.09;6183629;28;110095;-61
2023/07/03 00:40:08;;;;;;;18.53;17.20;;;;;;;24.12;51.52;94719.97;6179881;28;109076;-61
2023/07/03 00:43:14;;;;;;;19.17;17.67;;;;;;;24.11;51.64;94718.41;6166949;28;109553;-61
2023/07/03 00:46:17;;;;;;;19.27;17.77;;;;;;;24.09;51.76;94715.28;6163130;28;109092;-61
2023/07/03 00:49:21;;;;;;;18.03;16.73;;;;;;;24.11;51.55;94718.41;6199350;28;109174;-61
2023/07/03 00:52:24;;;;;;;18.50;17.20;;;;;;;24.12;51.62;94728.78;6149946;28;109326;-61
2023/07/03 00:55:27;;;;;;;19.70;18.20;;;;;;;24.01;51.70;94714.22;6179133;28;110224;-61
2023/07/03 00:58:32;;;;;;;18.70;17.30;;;;;;;24.10;51.86;94725.66;6183940;28;109236;-61
2023/07/03 01:01:43;;;;;;;19.53;18.03;;;;;;;24.09;51.67;94728.66;6184177;28;109010;-61
2023/07/03 01:04:52;;;;;;;18.17;16.87;;;;;;;24.09;51.88;94723.31;6156602;28;109069;-61
2023/07/03 01:07:56;;;;;;;18.10;16.80;;;;;;;24.10;51.72;94722.19;6184200;28;109050;-60
2023/07/03 01:11:00;;;;;;;18.37;17.03;;;;;;;24.03;51.93;94722.72;6168310;28;109075;-60
2023/07/03 01:14:07;;;;;;;18.53;17.13;;;;;;;24.04;51.84;94723.53;6157741;28;110115;-61
2023/07/03 01:17:11;;;;;;;18.90;17.50;;;;;;;24.07;51.68;94726.31;6172465;28;109661;-60
2023/07/03 01:20:18;;;;;;;19.30;17.90;;;;;;;24.06;52.03;94719.41;6196441;28;109047;-60
2023/07/03 01:23:28;;;;;;;18.97;17.63;;;;;;;24.04;51.62;94721.63;6172990;28;111661;-60
2023/07/03 01:26:34;;;;;;;18.80;17.40;;;;;;;24.02;51.69;94713.13;6159215;28;109034;-61
2023/07/03 01:29:40;;;;;;;19.43;17.93;;;;;;;24.06;52.23;94723.97;6178312;28;109538;-61
2023/07/03 01:32:46;;;;;;;19.73;18.27;;;;;;;24.06;51.88;94727.44;6187820;28;110289;-60
2023/07/03 01:35:51;;;;;;;18.83;17.50;;;;;;;24.06;52.17;94729.31;6167167;28;111452;-59
2023/07/03 01:38:56;;;;;;;19.57;18.17;;;;;;;24.07;52.03;94731.66;6176544;28;109128;-60
2023/07/03 01:42:01;;;;;;;20.10;18.50;;;;;;;24.07;52.13;94725.53;6187776;28;109233;-60
2023/07/03 01:45:05;;;;;;;19.40;18.00;;;;;;;24.09;52.00;94728.66;6180898;28;110211;-60
2023/07/03 01:48:08;;;;;;;19.67;18.13;;;;;;;23.99;51.66;94721.00;6180747;28;109504;-67
2023/07/03 01:51:20;;;;;;;19.23;17.93;;;;;;;24.07;52.05;94730.88;6179837;28;109205;-62
2023/07/03 01:54:30;;;;;;;21.23;19.67;;;;;;;24.07;52.13;94731.66;6165615;28;109033;-61
2023/07/03 01:57:46;;;;;;;19.30;17.90;;;;;;;24.11;51.99;94739.81;6187827;28;108866;-60
2023/07/03 02:00:52;;;;;;;19.57;18.07;;;;;;;24.10;52.13;94738.25;6177536;28;110618;-60
2023/07/03 02:04:01;;;;;;;19.70;18.30;;;;;;;24.12;52.26;94736.03;6183384;28;109037;-60
2023/07/03 02:07:07;;;;;;;21.97;20.33;;;;;;;24.05;51.81;94731.22;6164085;28;109197;-61
2023/07/03 02:10:11;;;;;;;19.60;18.10;;;;;;;24.09;51.96;94734.78;6191259;28;110207;-61
2023/07/03 02:13:15;;;;;;;20.63;19.10;;;;;;;24.04;52.05;94720.84;6175110;28;110290;-62
2023/07/03 02:16:18;;;;;;;20.17;18.67;;;;;;;24.10;52.04;94736.34;6163688;28;109817;-60
2023/07/03 02:19:28;;;;;;;20.43;18.93;;;;;;;24.11;51.96;94731.78;6180840;28;109101;-62
2023/07/03 02:22:32;;;;;;;20.60;19.10;;;;;;;24.07;52.31;94739.69;6167760;28;109397;-60
2023/07/03 02:25:35;;;;;;;20.13;18.63;;;;;;;24.07;52.21;94744.25;6178061;28;109075;-70
2023/07/03 02:28:40;;;;;;;21.47;19.80;;;;;;;24.07;52.40;94746.91;6187139;28;109392;-68
2023/07/03 02:31:43;;;;;;;21.37;19.80;;;;;;;24.04;52.40;94751.03;6177595;28;109264;-68
2023/07/03 02:34:46;;;;;;;20.23;18.83;;;;;;;24.04;52.19;94751.03;6162239;28;109132;-68
2023/07/03 02:37:49;;;;;;;20.77;19.17;;;;;;;24.04;52.35;94752.91;6169549;28;109915;-68
2023/07/03 02:40:52;;;;;;;19.00;17.60;;;;;;;24.04;52.34;94764.41;6176720;28;108834;-73
2023/07/03 02:43:56;;;;;;;21.20;19.60;;;;;;;24.05;52.49;94765.97;6162743;28;109182;-70
2023/07/03 02:47:00;;;;;;;21.00;19.40;;;;;;;23.89;52.82;94760.38;6173800;28;109083;-69
2023/07/03 02:50:03;;;;;;;20.33;18.73;;;;;;;24.00;52.66;94776.81;6203924;28;109213;-70
2023/07/03 02:53:07;;;;;;;20.50;18.90;;;;;;;23.98;52.60;94775.56;6186483;28;109929;-70
2023/07/03 02:56:10;;;;;;;20.43;18.73;;;;;;;23.97;52.53;94776.66;6185660;28;109082;-69
2023/07/03 02:59:15;;;;;;;25.63;23.43;;;;;;;23.87;52.49;94775.94;6177941;28;112055;-70
2023/07/03 03:02:20;;;;;;;24.87;22.87;;;;;;;23.78;52.88;94777.88;6173120;28;109130;-69
2023/07/03 03:05:23;;;;;;;33.63;30.83;;;;;;;23.77;52.94;94778.97;6186615;28;110158;-69
2023/07/03 03:08:26;;;;;;;28.60;26.30;;;;;;;23.82;53.07;94783.34;6180361;28;110213;-68
2023/07/03 03:11:29;;;;;;;31.07;28.47;;;;;;;23.93;52.39;94789.91;6177067;28;108897;-68
2023/07/03 03:14:35;;;;;;;27.90;25.60;;;;;;;23.98;52.26;94792.38;6178892;28;109287;-67
2023/07/03 03:17:38;;;;;;;26.00;23.80;;;;;;;24.00;52.38;94786.72;6185854;28;108840;-68
2023/07/03 03:20:41;;;;;;;28.80;26.50;;;;;;;24.04;52.15;94788.47;6168787;28;110060;-68
2023/07/03 03:23:46;;;;;;;22.57;20.60;;;;;;;23.97;52.44;94784.69;6162173;28;110248;-68
2023/07/03 03:26:49;;;;;;;20.90;19.10;;;;;;;23.89;52.40;94788.97;6176378;28;108814;-66
2023/07/03 03:29:54;;;;;;;35.20;32.40;;;;;;;23.93;52.11;94783.78;6162544;28;109262;-67
2023/07/03 03:32:57;;;;;;;34.70;31.90;;;;;;;23.98;52.31;94780.91;6172431;28;108769;-67
2023/07/03 03:36:00;;;;;;;28.93;26.47;;;;;;;23.99;52.27;94783.25;6183912;28;109456;-68
2023/07/03 03:39:04;;;;;;;22.93;21.23;;;;;;;23.97;52.25;94790.03;6180420;28;109036;-68
2023/07/03 03:42:09;;;;;;;23.10;20.97;;;;;;;23.99;52.36;94795.84;6178683;28;109073;-67
2023/07/03 03:45:13;;;;;;;28.50;26.10;;;;;;;23.97;52.09;94793.47;6167417;28;109898;-67
2023/07/03 03:48:16;;;;;;;35.83;32.57;;;;;;;24.03;51.86;94786.09;6184394;28;108924;-68
2023/07/03 03:51:20;;;;;;;28.87;26.40;;;;;;;23.99;52.31;94795.84;6185419;28;109107;-68
2023/07/03 03:54:23;;;;;;;21.80;19.90;;;;;;;23.80;53.19;94801.59;6159522;28;109082;-68
2023/07/03 03:57:26;;;;;;;22.07;20.00;;;;;;;23.69;53.40;94803.88;6185346;28;109104;-67
2023/07/03 04:00:31;;;;;;;20.07;18.40;;;;;;;23.74;53.61;94806.34;6189799;28;109306;-68
2023/07/03 04:03:34;;;;;;;21.60;19.50;;;;;;;23.93;52.74;94819.28;6186728;28;109287;-68
2023/07/03 04:06:38;;;;;;;39.70;36.37;;;;;;;23.94;52.85;94806.72;6176010;28;110463;-68
2023/07/03 04:09:41;;;;;;;32.70;29.90;;;;;;;24.08;54.07;94808.06;6192662;28;109197;-68
2023/07/03 04:12:44;;;;;;;24.20;22.20;;;;;;;24.12;53.45;94810.88;6209107;28;109087;-67
2023/07/03 04:15:58;;;;;;;22.53;20.30;;;;;;;24.19;53.17;94828.00;6208602;28;109122;-67
2023/07/03 04:19:02;;;;;;;23.90;21.20;;;;;;;24.27;53.21;94815.66;6186201;28;109264;-68
2023/07/03 04:22:06;;;;;;;22.50;20.30;;;;;;;24.31;53.00;94824.59;6191732;28;109212;-67
2023/07/03 04:25:10;;;;;;;21.67;19.77;;;;;;;24.33;53.74;94834.97;6185800;28;109300;-67
2023/07/03 04:28:14;;;;;;;22.47;20.47;;;;;;;24.37;53.26;94827.88;6176133;28;109264;-67
2023/07/03 04:31:18;;;;;;;24.27;22.07;;;;;;;24.28;54.25;94827.13;6193191;28;109216;-64
2023/07/03 04:34:22;;;;;;;22.17;20.37;;;;;;;24.20;54.45;94828.78;6176176;28;109105;-67
2023/07/03 04:37:26;;;;;;;21.73;19.70;;;;;;;24.24;53.71;94837.72;6178487;28;110379;-68
2023/07/03 04:40:30;;;;;;;20.60;18.90;;;;;;;24.26;53.67;94834.72;6149019;28;109291;-67
2023/07/03 04:43:33;;;;;;;21.17;19.27;;;;;;;24.20;54.05;94836.78;6168214;28;109055;-67
2023/07/03 04:46:38;;;;;;;21.63;19.73;;;;;;;24.17;54.33;94832.84;6185580;28;109151;-71
2023/07/03 04:49:41;;;;;;;20.40;18.70;;;;;;;24.18;53.56;94837.09;6187623;28;111123;-71
2023/07/03 04:52:46;;;;;;;21.50;19.50;;;;;;;24.16;54.49;94839.31;6178558;28;108997;-71
2023/07/03 04:55:49;;;;;;;19.77;17.97;;;;;;;24.13;54.91;94847.97;6189354;28;109285;-73
2023/07/03 04:58:53;;;;;;;21.03;19.27;;;;;;;24.14;53.96;94846.09;6189101;28;109414;-73
2023/07/03 05:01:57;;;;;;;20.87;19.17;;;;;;;24.13;54.16;94856.00;6182020;28;108763;-72
2023/07/03 05:05:01;;;;;;;21.00;19.30;;;;;;;24.12;54.57;94851.75;6187669;28;109348;-73
2023/07/03 05:08:05;;;;;;;21.07;19.47;;;;;;;24.11;54.37;94849.41;6189099;28;109246;-72
2023/07/03 05:11:08;;;;;;;19.67;18.07;;;;;;;24.11;53.86;94854.75;6188166;28;109043;-74
2023/07/03 05:14:11;;;;;;;19.67;18.10;;;;;;;24.12;54.03;94856.34;6178641;28;109060;-73
2023/07/03 05:17:16;;;;;;;19.20;17.70;;;;;;;24.16;54.33;94860.69;6194440;28;108626;-69
2023/07/03 05:20:22;;;;;;;20.87;19.27;;;;;;;24.19;54.48;94857.41;6213164;28;109089;-69
2023/07/03 05:23:25;;;;;;;20.47;18.83;;;;;;;24.27;53.96;94857.66;6213658;28;109402;-69
2023/07/03 05:26:28;;;;;;;19.90;18.30;;;;;;;24.30;54.37;94860.47;6202491;28;109271;-69
2023/07/03 05:29:33;;;;;;;21.17;19.47;;;;;;;24.30;54.63;94857.00;6212962;28;109490;-69
2023/07/03 05:32:38;;;;;;;22.20;20.40;;;;;;;24.34;54.81;94861.38;6191986;28;109437;-69
2023/07/03 05:35:41;;;;;;;21.20;19.37;;;;;;;24.36;54.77;94867.22;6183574;28;109031;-68
2023/07/03 05:38:53;;;;;;;20.20;18.43;;;;;;;24.37;54.92;94871.47;6183070;28;109052;-69
2023/07/03 05:41:56;;;;;;;20.50;18.70;;;;;;;24.42;55.12;94865.91;6187721;28;108909;-68
2023/07/03 05:44:59;;;;;;;19.93;18.30;;;;;;;24.45;54.43;94870.59;6187982;28;109088;-69
2023/07/03 05:48:04;;;;;;;18.50;17.00;;;;;;;24.47;54.00;94871.06;6188269;28;109114;-68
2023/07/03 05:51:07;;;;;;;20.03;18.50;;;;;;;24.20;54.41;94831.44;6213168;28;109419;-67
2023/07/03 05:54:10;;;;;;;20.33;18.33;;;;;;;24.56;54.40;94875.59;6212836;28;109431;-62
2023/07/03 05:57:13;;;;;;;19.27;17.73;;;;;;;24.62;53.88;94875.06;6212694;28;109446;-62
2023/07/03 06:00:17;;;;;;;19.20;17.70;;;;;;;24.70;53.17;94878.81;6201727;28;109321;-61
2023/07/03 06:03:24;;;;;;;18.50;17.00;;;;;;;24.76;53.67;94880.97;6211866;28;109190;-62
2023/07/03 06:06:28;;;;;;;18.00;16.50;;;;;;;24.83;53.73;94872.41;6212545;28;109293;-63
2023/07/03 06:09:33;;;;;;;17.87;16.47;;;;;;;24.89;53.61;94870.34;6208491;28;109259;-65
2023/07/03 06:12:38;;;;;;;17.40;16.10;;;;;;;24.92;54.15;94873.13;6205820;28;109322;-62
2023/07/03 06:15:41;;;;;;;18.07;16.60;;;;;;;24.98;53.91;94868.34;6212962;28;110113;-61
2023/07/03 06:18:46;;;;;;;17.70;16.30;;;;;;;25.03;54.16;94873.50;6194866;28;108980;-61
2023/07/03 06:21:49;;;;;;;18.97;17.57;;;;;;;25.06;54.10;94872.84;6177458;28;109247;-62
2023/07/03 06:24:52;;;;;;;19.03;17.63;;;;;;;25.11;53.88;94872.66;6187534;28;109703;-61
2023/07/03 06:27:55;;;;;;;17.50;16.10;;;;;;;25.13;54.15;94877.66;6187947;28;110067;-62
2023/07/03 06:30:58;;;;;;;17.63;16.03;;;;;;;25.12;53.93;94878.78;6187477;28;108714;-62
2023/07/03 06:34:04;;;;;;;17.40;15.90;;;;;;;25.20;53.84;94880.59;6178061;28;109012;-62
2023/07/03 06:37:07;;;;;;;17.43;16.00;;;;;;;25.22;54.09;94879.16;6187552;28;109263;-62
2023/07/03 06:40:14;;;;;;;17.77;16.47;;;;;;;25.21;54.16;94874.94;6187509;28;109286;-62
2023/07/03 06:43:17;;;;;;;16.90;15.60;;;;;;;25.28;53.82;94877.06;6187189;28;108854;-62
2023/07/03 06:46:21;;;;;;;17.07;15.77;;;;;;;25.33;53.81;94872.28;6176495;28;109039;-62
2023/07/03 06:49:25;;;;;;;17.30;15.90;;;;;;;25.36;54.14;94874.31;6187270;28;109064;-62
2023/07/03 06:52:28;;;;;;;16.87;15.57;;;;;;;25.37;53.58;94878.59;6187342;28;109805;-62
2023/07/03 06:55:32;;;;;;;16.70;15.50;;;;;;;25.43;53.58;94875.69;6180900;28;109035;-65
2023/07/03 06:58:35;;;;;;;16.17;14.97;;;;;;;25.44;53.42;94875.34;6183652;28;109349;-62
2023/07/03 07:01:41;;;;;;;18.13;16.63;;;;;;;25.45;53.38;94874.25;6186786;28;109063;-62
2023/07/03 07:04:45;;;;;;;17.40;16.03;;;;;;;25.47;53.25;94874.69;6186629;28;109466;-72
2023/07/03 07:07:49;;;;;;;16.63;15.03;;;;;;;25.54;52.84;94877.63;6176319;28;109068;-72
2023/07/03 07:10:52;;;;;;;15.97;14.73;;;;;;;25.57;52.78;94882.31;6186464;28;109629;-72
2023/07/03 07:13:58;;;;;;;15.97;14.77;;;;;;;25.59;52.92;94880.09;6185395;28;109109;-73
2023/07/03 07:17:01;;;;;;;15.50;14.40;;;;;;;25.62;52.56;94878.63;6188804;28;109107;-73
2023/07/03 07:20:07;;;;;;;16.37;15.17;;;;;;;25.64;52.51;94873.72;6200157;28;109052;-72
2023/07/03 07:23:10;;;;;;;15.27;14.07;;;;;;;25.68;52.02;94883.44;6210468;28;109056;-72
2023/07/03 07:26:15;;;;;;;14.90;13.77;;;;;;;25.73;52.30;94882.47;6211158;28;109356;-72
2023/07/03 07:29:19;;;;;;;15.47;14.27;;;;;;;25.72;52.08;94878.22;6206183;28;109299;-72
2023/07/03 07:32:24;;;;;;;15.30;14.20;;;;;;;25.77;52.38;94877.22;6205573;28;109315;-73
2023/07/03 07:35:29;;;;;;;14.93;13.73;;;;;;;25.83;51.96;94875.88;6211267;28;109261;-73
2023/07/03 07:38:32;;;;;;;15.30;14.10;;;;;;;25.82;52.15;94883.13;6210962;28;109817;-73
2023/07/03 07:41:36;;;;;;;14.13;13.07;;;;;;;25.86;51.70;94883.22;6201941;28;109030;-72
2023/07/03 07:44:39;;;;;;;14.83;13.73;;;;;;;25.87;51.75;94880.22;6209904;28;109079;-73
2023/07/03 07:47:42;;;;;;;14.97;13.67;;;;;;;25.92;51.25;94876.56;6206750;28;110129;-72
2023/07/03 07:50:47;;;;;;;14.53;13.43;;;;;;;25.96;51.67;94883.59;6186489;28;109309;-72
2023/07/03 07:53:51;;;;;;;16.17;14.87;;;;;;;25.99;51.05;94888.28;6175665;28;109457;-73
2023/07/03 07:56:54;;;;;;;14.50;13.40;;;;;;;26.02;51.52;94892.22;6186328;28;109225;-73
2023/07/03 07:59:57;;;;;;;13.77;12.77;;;;;;;26.03;51.24;94893.78;6187520;28;109262;-72
2023/07/03 08:03:01;;;;;;;13.93;12.93;;;;;;;25.97;51.32;94892.41;6186169;28;109065;-73
2023/07/03 08:06:06;;;;;;;15.03;13.93;;;;;;;25.92;51.32;94898.00;6176712;28;109258;-72
2023/07/03 08:09:09;;;;;;;13.77;12.70;;;;;;;25.92;51.59;94900.69;6189311;28;110197;-73
2023/07/03 08:12:12;;;;;;;13.80;12.80;;;;;;;25.96;51.29;94897.00;6186027;28;109382;-72
2023/07/03 08:15:16;;;;;;;14.30;13.20;;;;;;;25.99;50.98;94899.00;6175259;28;109749;-67
2023/07/03 08:18:20;;;;;;;14.17;13.17;;;;;;;26.01;51.34;94900.59;6197558;28;109107;-73
2023/07/03 08:21:24;;;;;;;13.97;12.97;;;;;;;25.95;51.59;94908.84;6210096;28;109441;-72
2023/07/03 08:24:27;;;;;;;13.70;12.50;;;;;;;25.96;51.23;94894.31;6209331;28;109502;-72
2023/07/03 08:27:31;;;;;;;12.53;11.63;;;;;;;26.02;51.54;94902.16;6201099;28;109428;-73
2023/07/03 08:30:34;;;;;;;13.20;12.20;;;;;;;26.04;51.02;94899.94;6209794;28;109114;-73
2023/07/03 08:33:37;;;;;;;13.47;12.50;;;;;;;26.08;51.37;94895.47;6209959;28;109323;-73
2023/07/03 08:36:42;;;;;;;12.87;11.97;;;;;;;26.08;50.96;94904.31;6209976;28;109041;-72
2023/07/03 08:39:48;;;;;;;13.63;12.57;;;;;;;26.07;51.36;94905.44;6200483;28;108908;-73
2023/07/03 08:42:54;;;;;;;13.50;12.40;;;;;;;26.10;50.76;94904.75;6209498;28;109144;-72
2023/07/03 08:45:58;;;;;;;13.90;12.70;;;;;;;25.93;51.19;94878.13;6209648;28;108900;-73
2023/07/03 08:49:04;;;;;;;12.63;11.73;;;;;;;26.00;51.48;94902.50;6185993;28;109041;-72
2023/07/03 08:52:09;;;;;;;13.33;12.33;;;;;;;25.99;50.81;94898.22;6180240;28;110177;-72
2023/07/03 08:55:17;;;;;;;12.63;11.63;;;;;;;25.98;50.46;94907.38;6185052;28;109283;-71
2023/07/03 08:58:21;;;;;;;13.27;12.17;;;;;;;25.98;50.07;94902.03;6185237;28;109172;-72
2023/07/03 09:01:32;;;;;;;12.97;11.97;;;;;;;25.93;50.13;94896.88;6174278;28;109755;-73
2023/07/03 09:04:48;;;;;;;13.17;12.17;;;;;;;25.99;49.94;94904.38;6185474;28;109182;-72
2023/07/03 09:07:55;;;;;;;11.87;11.07;;;;;;;25.97;50.15;94898.56;6185541;28;109490;-72
2023/07/03 09:10:59;;;;;;;13.93;12.83;;;;;;;26.05;49.98;94902.31;6185954;28;110879;-72
2023/07/03 09:14:04;;;;;;;13.00;11.90;;;;;;;26.05;50.10;94896.94;6175014;28;109925;-72
2023/07/03 09:17:09;;;;;;;11.93;11.03;;;;;;;26.06;49.94;94893.13;6184449;28;109330;-72
2023/07/03 09:20:15;;;;;;;12.53;11.53;;;;;;;26.04;50.47;94889.19;6185069;28;109160;-71
2023/07/03 09:23:22;;;;;;;11.73;10.80;;;;;;;26.09;50.28;94902.41;6178050;28;111372;-67
2023/07/03 09:26:33;;;;;;;12.07;11.17;;;;;;;26.03;49.93;94901.81;6184128;28;109004;-61
2023/07/03 09:29:37;;;;;;;12.60;11.60;;;;;;;26.07;49.50;94900.06;6184831;28;109052;-61
2023/07/03 09:32:40;;;;;;;12.10;11.03;;;;;;;26.09;50.02;94903.19;6184663;28;109082;-61
2023/07/03 09:35:44;;;;;;;11.83;10.90;;;;;;;26.09;50.22;94894.38;6175963;28;109342;-61
2023/07/03 09:38:48;;;;;;;11.67;10.70;;;;;;;26.08;49.69;94904.31;6189354;28;110096;-61
2023/07/03 09:41:53;;;;;;;12.60;11.60;;;;;;;26.09;49.55;94899.72;6188468;28;109108;-62
2023/07/03 09:44:56;;;;;;;12.50;11.40;;;;;;;26.07;49.64;94897.38;6188600;28;109007;-61
2023/07/03 09:48:02;;;;;;;12.50;11.50;;;;;;;26.09;50.00;94897.81;6186765;28;109071;-62
2023/07/03 09:51:07;;;;;;;12.00;11.10;;;;;;;26.07;49.58;94905.44;6213128;28;109468;-61
2023/07/03 09:54:21;;;;;;;12.67;11.57;;;;;;;26.10;50.14;94899.38;6213863;28;110519;-61
2023/07/03 09:57:26;;;;;;;11.77;10.87;;;;;;;26.08;49.66;94890.91;6206252;28;109192;-69
2023/07/03 10:00:30;;;;;;;11.93;10.73;;;;;;;26.10;49.70;94899.38;6212317;28;109824;-62
2023/07/03 10:03:37;;;;;;;12.53;11.43;;;;;;;26.09;49.90;94899.72;6211859;28;110514;-61
2023/07/03 10:06:43;;;;;;;13.03;11.97;;;;;;;26.09;49.90;94892.47;6212869;28;109219;-62
2023/07/03 10:09:49;;;;;;;12.27;11.27;;;;;;;26.11;49.90;94894.81;6203648;28;109208;-61
2023/07/03 10:13:03;;;;;;;12.03;11.03;;;;;;;26.10;49.44;94891.34;6209337;28;109865;-66
2023/07/03 10:16:07;;;;;;;12.07;11.07;;;;;;;26.09;49.67;94892.47;6212936;28;109068;-61
2023/07/03 10:19:11;;;;;;;12.07;11.07;;;;;;;26.08;49.48;94890.91;6192716;28;109361;-61
2023/07/03 10:22:15;;;;;;;12.10;11.00;;;;;;;25.98;49.91;94884.03;6178637;28;109844;-62
2023/07/03 10:25:28;;;;;;;11.77;10.77;;;;;;;25.95;49.75;94884.72;6188822;28;109123;-62
2023/07/03 10:28:38;;;;;;;11.83;10.83;;;;;;;25.98;49.56;94888.63;6188565;28;112296;-63
2023/07/03 10:31:47;;;;;;;12.00;10.90;;;;;;;25.97;49.66;94879.00;6178380;28;109358;-62
2023/07/03 10:34:58;;;;;;;12.57;11.37;;;;;;;26.01;49.80;94879.16;6187952;28;109051;-73
2023/07/03 10:38:10;;;;;;;11.90;10.97;;;;;;;26.01;49.75;94869.19;6187772;28;109336;-74
2023/07/03 10:41:20;;;;;;;11.80;10.70;;;;;;;25.97;49.91;94868.28;6188444;28;109930;-75
2023/07/03 10:44:27;;;;;;;11.60;10.60;;;;;;;25.97;50.07;94877.09;6177016;28;109060;-74
2023/07/03 10:47:37;;;;;;;11.60;10.60;;;;;;;25.94;49.64;94875.09;6192396;28;108790;-75
2023/07/03 10:50:48;;;;;;;12.37;11.27;;;;;;;25.96;49.91;94880.13;6212162;28;109150;-73
2023/07/03 10:53:56;;;;;;;11.60;10.60;;;;;;;25.96;50.07;94872.88;6207121;28;109059;-73
2023/07/03 10:57:03;;;;;;;12.57;11.47;;;;;;;25.96;49.77;94875.53;6206642;28;109130;-74
2023/07/03 11:00:12;;;;;;;11.30;10.30;;;;;;;25.95;49.73;94871.31;6211873;28;109108;-73
2023/07/03 11:03:28;;;;;;;11.67;10.77;;;;;;;25.93;50.33;94867.41;6210832;28;110319;-74
2023/07/03 11:06:42;;;;;;;11.80;10.83;;;;;;;25.92;49.98;94860.47;6201638;28;110642;-74
2023/07/03 11:09:54;;;;;;;12.03;11.10;;;;;;;25.93;49.85;94872.75;6212015;28;109072;-73
2023/07/03 11:13:05;;;;;;;11.50;10.60;;;;;;;25.93;49.45;94862.03;6212736;28;109444;-76
2023/07/03 11:16:14;;;;;;;10.93;10.03;;;;;;;25.92;49.79;94858.56;6212909;28;109038;-73
2023/07/03 11:19:29;;;;;;;11.70;10.70;;;;;;;25.88;49.84;94862.25;6185154;28;109298;-73
2023/07/03 11:22:46;;;;;;;11.87;10.87;;;;;;;25.87;49.28;94869.50;6182734;28;108915;-76
2023/07/03 11:25:54;;;;;;;11.90;10.90;;;;;;;25.86;49.75;94867.16;6187268;28;108869;-73
2023/07/03 11:29:04;;;;;;;10.10;9.30;;;;;;;25.82;49.66;94863.56;6177175;28;109314;-73
2023/07/03 11:32:10;;;;;;;10.23;9.53;;;;;;;25.84;49.58;94859.44;6186907;28;109026;-73
2023/07/03 11:35:14;;;;;;;10.83;9.93;;;;;;;25.86;49.72;94853.75;6186477;28;109660;-74
2023/07/03 11:38:21;;;;;;;11.13;10.23;;;;;;;25.84;49.70;94855.97;6183264;28;109090;-74
2023/07/03 11:41:43;;;;;;;10.37;9.57;;;;;;;25.81;49.97;94841.34;6176781;28;110478;-74
2023/07/03 11:45:00;;;;;;;10.30;9.40;;;;;;;25.85;49.77;94844.13;6187384;28;111998;-67
2023/07/03 11:48:04;;;;;;;11.40;10.30;;;;;;;25.82;49.43;94850.19;6195480;28;109078;-66
2023/07/03 11:51:10;;;;;;;10.30;9.50;;;;;;;25.80;49.93;94847.03;6201590;28;109253;-67
2023/07/03 11:54:18;;;;;;;10.30;9.50;;;;;;;25.80;49.68;94847.03;6209769;28;110037;-69
2023/07/03 11:57:33;;;;;;;10.50;9.70;;;;;;;25.80;49.59;94841.69;6210474;28;109044;-67
2023/07/03 12:00:38;;;;;;;10.40;9.50;;;;;;;25.81;49.52;94841.34;6210620;28;109076;-67
2023/07/03 12:03:51;;;;;;;10.40;9.50;;;;;;;25.73;49.44;94838.78;6200007;28;109917;-67
2023/07/03 12:06:55;;;;;;;9.80;9.10;;;;;;;25.80;49.72;94841.69;6211056;28;110136;-67
2023/07/03 12:10:27;;;;;;;9.10;8.47;;;;;;;25.80;49.79;94847.03;6210596;28;109073;-67
2023/07/03 12:13:45;;;;;;;9.87;9.07;;;;;;;25.79;49.75;94845.47;6189798;28;109484;-67
2023/07/03 12:16:49;;;;;;;9.40;8.70;;;;;;;25.76;49.82;94849.63;6208564;28;111417;-66
2023/07/03 12:19:58;;;;;;;9.77;9.07;;;;;;;25.78;49.03;94847.38;6186328;28;109014;-67
2023/07/03 12:23:01;;;;;;;9.90;9.10;;;;;;;25.79;49.28;94840.91;6185753;28;109743;-67
2023/07/03 12:26:07;;;;;;;9.70;8.90;;;;;;;25.72;49.26;94829.19;6173894;28;109152;-66
2023/07/03 12:29:10;;;;;;;9.10;8.40;;;;;;;25.76;49.21;94830.84;6185857;28;109075;-67
2023/07/03 12:32:25;;;;;;;9.17;8.47;;;;;;;25.76;49.14;94830.84;6185799;28;109306;-67
2023/07/03 12:35:31;;;;;;;9.93;9.20;;;;;;;25.76;48.79;94830.84;6185716;28;108843;-66
2023/07/03 12:38:35;;;;;;;9.00;8.30;;;;;;;25.76;49.32;94828.19;6175050;28;109061;-66
2023/07/03 12:41:39;;;;;;;9.53;8.80;;;;;;;25.77;49.43;94834.31;6185682;28;109048;-66
2023/07/03 12:44:42;;;;;;;9.63;8.93;;;;;;;25.77;49.30;94832.41;6185833;28;109905;-68
2023/07/03 12:48:00;;;;;;;10.07;9.20;;;;;;;25.78;49.25;94822.47;6186809;28;110233;-68
2023/07/03 12:51:03;;;;;;;8.83;8.13;;;;;;;25.78;49.16;94827.84;6209346;28;109180;-67
2023/07/03 12:54:08;;;;;;;9.47;8.77;;;;;;;25.72;48.99;94819.25;6209840;28;109051;-68
2023/07/03 12:57:11;;;;;;;9.23;8.50;;;;;;;25.72;49.45;94827.28;6209696;28;109068;-75
2023/07/03 13:00:21;;;;;;;9.17;8.47;;;;;;;25.78;49.35;94827.84;6199941;28;109211;-75
2023/07/03 13:03:25;;;;;;;8.27;7.63;;;;;;;25.77;48.98;94840.47;6209872;28;108839;-74
2023/07/03 13:06:30;;;;;;;8.40;7.70;;;;;;;25.78;49.21;94838.56;6209548;28;109087;-74
2023/07/03 13:09:33;;;;;;;7.70;7.10;;;;;;;25.78;49.48;94833.97;6209736;28;109121;-74
2023/07/03 13:12:36;;;;;;;8.47;7.67;;;;;;;25.80;48.85;94839.00;6203321;28;109970;-74
2023/07/03 13:15:42;;;;;;;8.20;7.60;;;;;;;25.80;49.48;94830.97;6213635;28;109047;-75
2023/07/03 13:19:00;;;;;;;8.00;7.30;;;;;;;25.80;48.94;94825.59;6214657;28;109204;-75
2023/07/03 13:22:07;;;;;;;8.53;7.73;;;;;;;25.81;49.22;94832.53;6204266;28;109443;-73
2023/07/03 13:25:11;;;;;;;9.30;8.50;;;;;;;25.79;49.28;94832.88;6215594;28;109326;-74
2023/07/03 13:28:24;;;;;;;7.93;7.30;;;;;;;25.81;48.92;94827.94;6212874;28;109055;-74
2023/07/03 13:31:30;;;;;;;8.33;7.63;;;;;;;25.79;49.35;94829.41;6214181;28;109212;-74
2023/07/03 13:34:58;;;;;;;8.07;7.47;;;;;;;25.76;48.91;94830.06;6203608;28;109075;-73
2023/07/03 13:38:20;;;;;;;8.40;7.70;;;;;;;25.78;49.43;94833.97;6213767;28;109208;-73
2023/07/03 13:41:24;;;;;;;7.60;7.00;;;;;;;25.79;49.24;94842.81;6214312;28;111574;-73
2023/07/03 13:44:27;;;;;;;7.90;7.30;;;;;;;25.78;49.19;94833.19;6208430;28;109854;-74
2023/07/03 13:47:30;;;;;;;7.63;7.03;;;;;;;25.76;49.23;94843.47;6204833;28;109946;-74
2023/07/03 13:50:35;;;;;;;8.03;7.43;;;;;;;25.73;49.40;94836.09;6189143;28;109957;-74
2023/07/03 13:53:39;;;;;;;7.50;6.97;;;;;;;25.75;49.55;94840.00;6188750;28;110281;-74
2023/07/03 13:56:44;;;;;;;7.80;7.30;;;;;;;25.72;48.88;94837.22;6178982;28;110296;-74
2023/07/03 13:59:47;;;;;;;8.00;7.40;;;;;;;25.75;49.30;94839.22;6188018;28;108885;-73
2023/07/03 14:02:50;;;;;;;7.07;6.57;;;;;;;25.75;49.27;94845.38;6187954;28;109199;-74
2023/07/03 14:05:55;;;;;;;7.37;6.83;;;;;;;25.76;49.32;94838.13;6189135;28;108827;-74